createdAt,value
2018-12-14T00:00:36.862Z,2.30
2018-12-14T00:03:04.138Z,2.40
2018-12-14T00:05:31.287Z,2.30
2018-12-14T00:07:58.422Z,2.40
2018-12-14T00:10:25.574Z,2.30
2018-12-14T00:12:52.946Z,2.30
2018-12-14T00:15:20.119Z,2.40
2018-12-14T00:17:47.269Z,2.40
2018-12-14T00:20:14.422Z,2.40
2018-12-14T00:22:41.636Z,2.40
2018-12-14T00:25:09.024Z,2.40
2018-12-14T00:27:36.211Z,2.30
2018-12-14T00:30:04.479Z,2.40
2018-12-14T00:32:31.910Z,2.40
2018-12-14T00:34:59.058Z,2.40
2018-12-14T00:37:26.193Z,2.40
2018-12-14T00:39:54.167Z,2.30
2018-12-14T00:42:21.424Z,2.40
2018-12-14T00:44:48.596Z,2.30
2018-12-14T00:47:15.882Z,2.30
2018-12-14T00:49:43.185Z,2.30
2018-12-14T00:52:10.395Z,2.40
2018-12-14T00:54:37.649Z,2.40
2018-12-14T00:57:04.811Z,2.40
2018-12-14T00:59:32.087Z,2.40
2018-12-14T01:01:59.410Z,2.40
2018-12-14T01:04:26.766Z,2.40
2018-12-14T01:06:54.977Z,2.40
2018-12-14T01:09:22.294Z,2.40
2018-12-14T01:11:49.450Z,2.40
2018-12-14T01:14:16.594Z,2.40
2018-12-14T01:16:43.739Z,2.30
2018-12-14T01:19:10.998Z,2.40
2018-12-14T01:21:38.548Z,2.30
2018-12-14T01:24:05.679Z,2.30
2018-12-14T01:26:32.892Z,2.30
2018-12-14T01:29:00.149Z,2.30
2018-12-14T01:31:27.414Z,2.40
2018-12-14T01:33:54.547Z,2.40
2018-12-14T01:36:21.688Z,2.50
2018-12-14T01:38:48.857Z,2.50
2018-12-14T01:41:16.000Z,2.50
2018-12-14T01:43:43.258Z,2.50
2018-12-14T01:46:10.554Z,2.40
2018-12-14T01:48:37.758Z,2.40
2018-12-14T01:51:05.014Z,2.30
2018-12-14T01:53:32.159Z,2.30
2018-12-14T01:55:59.411Z,2.30
2018-12-14T01:58:26.572Z,2.30
2018-12-14T02:00:53.716Z,2.30
2018-12-14T02:03:20.927Z,2.40
2018-12-14T02:05:48.186Z,2.40
2018-12-14T02:08:15.434Z,2.30
2018-12-14T02:10:42.562Z,2.30
2018-12-14T02:13:09.875Z,2.40
2018-12-14T02:15:37.018Z,2.40
2018-12-14T02:18:04.292Z,2.40
2018-12-14T02:20:31.538Z,2.40
2018-12-14T02:22:58.729Z,2.40
2018-12-14T02:25:25.881Z,2.40
2018-12-14T02:27:53.057Z,2.40
2018-12-14T02:30:31.814Z,2.40
2018-12-14T02:32:58.977Z,2.40
2018-12-14T02:35:26.105Z,2.30
2018-12-14T02:37:53.577Z,2.40
2018-12-14T02:40:20.712Z,2.40
2018-12-14T02:42:47.931Z,2.40
2018-12-14T02:45:15.149Z,2.40
2018-12-14T02:47:42.298Z,2.40
2018-12-14T02:50:09.655Z,2.30
2018-12-14T02:52:36.900Z,2.40
2018-12-14T02:55:04.395Z,2.40
2018-12-14T02:57:31.602Z,2.40
2018-12-14T02:59:58.736Z,2.40
2018-12-14T03:02:26.077Z,2.30
2018-12-14T03:04:53.335Z,2.40
2018-12-14T03:07:20.581Z,2.50
2018-12-14T03:09:47.830Z,2.40
2018-12-14T03:12:16.037Z,2.40
2018-12-14T03:14:43.350Z,2.30
2018-12-14T03:17:10.734Z,2.40
2018-12-14T03:19:38.654Z,2.20
2018-12-14T03:22:05.777Z,2.30
2018-12-14T03:24:32.928Z,2.30
2018-12-14T03:27:00.091Z,2.30
2018-12-14T03:29:27.226Z,2.30
2018-12-14T03:31:54.522Z,2.30
2018-12-14T03:34:21.649Z,2.30
2018-12-14T03:36:48.762Z,2.30
2018-12-14T03:39:16.146Z,2.30
2018-12-14T03:41:43.427Z,2.30
2018-12-14T03:44:10.566Z,2.30
2018-12-14T03:46:37.812Z,2.40
2018-12-14T03:49:04.939Z,2.40
2018-12-14T03:51:32.261Z,2.40
2018-12-14T03:53:59.386Z,2.30
2018-12-14T03:56:26.529Z,2.30
2018-12-14T03:58:53.790Z,2.40
2018-12-14T04:01:21.186Z,2.30
2018-12-14T04:03:48.359Z,2.40
2018-12-14T04:06:15.585Z,2.40
2018-12-14T04:08:42.963Z,2.30
2018-12-14T04:11:10.241Z,2.40
2018-12-14T04:13:37.474Z,2.30
2018-12-14T04:16:04.742Z,2.30
2018-12-14T04:18:32.012Z,2.40
2018-12-14T04:20:59.166Z,2.40
2018-12-14T04:23:26.293Z,2.40
2018-12-14T04:25:53.535Z,2.30
2018-12-14T04:28:20.655Z,2.30
2018-12-14T04:30:47.823Z,2.30
2018-12-14T04:33:15.772Z,2.20
2018-12-14T04:35:42.963Z,2.30
2018-12-14T04:38:10.274Z,2.40
2018-12-14T04:40:37.419Z,2.30
2018-12-14T04:43:04.556Z,2.30
2018-12-14T04:45:31.778Z,2.30
2018-12-14T04:47:58.934Z,2.30
2018-12-14T04:50:26.068Z,2.30
2018-12-14T04:52:53.283Z,2.30
2018-12-14T04:55:20.726Z,2.30
2018-12-14T04:57:47.892Z,2.30
2018-12-14T05:00:15.156Z,2.40
2018-12-14T05:02:42.303Z,2.30
2018-12-14T05:05:09.553Z,2.40
2018-12-14T05:07:36.779Z,2.40
2018-12-14T05:10:04.887Z,2.30
2018-12-14T05:12:32.017Z,2.30
2018-12-14T05:14:59.274Z,2.30
2018-12-14T05:17:26.524Z,2.40
2018-12-14T05:19:53.774Z,2.40
2018-12-14T05:22:21.021Z,2.30
2018-12-14T05:24:48.187Z,2.30
2018-12-14T05:27:15.702Z,2.20
2018-12-14T05:29:43.154Z,2.20
2018-12-14T05:32:10.406Z,2.30
2018-12-14T05:34:38.583Z,2.30
2018-12-14T05:37:05.726Z,2.20
2018-12-14T05:39:32.992Z,2.20
2018-12-14T05:42:00.126Z,2.30
2018-12-14T05:44:27.303Z,2.30
2018-12-14T05:46:54.542Z,2.20
2018-12-14T05:49:21.796Z,2.20
2018-12-14T05:51:49.077Z,2.30
2018-12-14T05:54:16.670Z,2.30
2018-12-14T05:56:44.247Z,2.30
2018-12-14T05:59:11.382Z,2.30
2018-12-14T06:01:38.627Z,2.20
2018-12-14T06:04:06.070Z,2.20
2018-12-14T06:06:33.310Z,2.20
2018-12-14T06:09:00.690Z,2.30
2018-12-14T06:11:27.831Z,2.30
2018-12-14T06:13:54.962Z,2.30
2018-12-14T06:16:22.109Z,2.30
2018-12-14T06:18:49.244Z,2.30
2018-12-14T06:21:16.481Z,2.30
2018-12-14T06:23:43.644Z,2.30
2018-12-14T06:26:10.808Z,2.40
2018-12-14T06:28:37.938Z,2.30
2018-12-14T06:31:05.117Z,2.30
2018-12-14T06:33:32.374Z,2.20
2018-12-14T06:35:59.540Z,2.20
2018-12-14T06:38:26.762Z,2.20
2018-12-14T06:40:54.023Z,2.20
2018-12-14T06:43:21.142Z,2.20
2018-12-14T06:45:48.316Z,2.30
2018-12-14T06:48:15.434Z,2.30
2018-12-14T06:50:42.686Z,2.20
2018-12-14T06:53:10.342Z,2.30
2018-12-14T06:55:37.486Z,2.30
2018-12-14T06:58:05.128Z,2.30
2018-12-14T07:00:32.362Z,2.30
2018-12-14T07:02:59.579Z,2.30
2018-12-14T07:05:26.726Z,2.30
2018-12-14T07:07:54.157Z,2.30
2018-12-14T07:10:21.463Z,2.40
2018-12-14T07:12:48.769Z,2.40
2018-12-14T07:15:16.198Z,2.40
2018-12-14T07:17:43.454Z,2.40
2018-12-14T07:20:10.755Z,2.40
2018-12-14T07:22:38.099Z,2.40
2018-12-14T07:25:05.532Z,2.40
2018-12-14T07:27:32.810Z,2.50
2018-12-14T07:29:59.962Z,2.40
2018-12-14T07:32:27.157Z,2.40
2018-12-14T07:34:54.375Z,2.50
2018-12-14T07:37:22.198Z,2.40
2018-12-14T07:39:49.388Z,2.30
2018-12-14T07:42:16.579Z,2.40
2018-12-14T07:44:43.790Z,2.30
2018-12-14T07:47:12.576Z,2.30
2018-12-14T07:49:39.723Z,2.40
2018-12-14T07:52:06.896Z,2.40
2018-12-14T07:54:34.029Z,2.50
2018-12-14T07:57:01.162Z,2.40
2018-12-14T07:59:28.295Z,2.40
2018-12-14T08:01:55.488Z,2.40
2018-12-14T08:04:22.895Z,2.40
2018-12-14T08:06:50.082Z,2.40
2018-12-14T08:09:17.570Z,2.40
2018-12-14T08:11:44.706Z,2.50
2018-12-14T08:14:11.970Z,2.50
2018-12-14T08:16:39.209Z,2.50
2018-12-14T08:19:06.450Z,2.50
2018-12-14T08:21:33.708Z,2.40
2018-12-14T08:24:00.826Z,2.50
2018-12-14T08:26:28.086Z,2.50
2018-12-14T08:28:55.218Z,2.40
2018-12-14T08:31:22.387Z,2.40
2018-12-14T08:33:49.506Z,2.40
2018-12-14T08:36:16.951Z,2.40
2018-12-14T08:38:44.078Z,2.40
2018-12-14T08:41:11.314Z,2.30
2018-12-14T08:43:41.440Z,2.40
2018-12-14T08:46:07.609Z,2.50
2018-12-14T08:48:34.746Z,2.50
2018-12-14T08:51:01.995Z,2.50
2018-12-14T08:53:29.483Z,2.60
2018-12-14T08:55:56.846Z,2.60
2018-12-14T08:58:24.095Z,2.50
2018-12-14T09:00:51.318Z,2.50
2018-12-14T09:03:18.475Z,2.50
2018-12-14T09:05:45.640Z,2.60
2018-12-14T09:08:12.858Z,2.50
2018-12-14T09:10:40.004Z,2.50
2018-12-14T09:13:07.142Z,2.50
2018-12-14T09:15:34.282Z,2.50
2018-12-14T09:18:01.557Z,2.50
2018-12-14T09:20:28.841Z,2.40
2018-12-14T09:22:56.031Z,2.50
2018-12-14T09:25:23.206Z,2.50
2018-12-14T09:27:50.393Z,2.60
2018-12-14T09:30:17.515Z,2.60
2018-12-14T09:32:44.818Z,2.60
2018-12-14T09:35:12.181Z,2.60
2018-12-14T09:37:39.340Z,2.60
2018-12-14T09:40:06.707Z,2.60
2018-12-14T09:42:33.847Z,2.60
2018-12-14T09:45:01.026Z,2.60
2018-12-14T09:47:28.346Z,2.60
2018-12-14T09:49:55.478Z,2.60
2018-12-14T09:52:22.607Z,2.70
2018-12-14T09:54:49.774Z,2.60
2018-12-14T09:57:16.910Z,2.60
2018-12-14T09:59:44.048Z,2.60
2018-12-14T10:02:11.178Z,2.60
2018-12-14T10:04:38.433Z,2.70
2018-12-14T10:07:05.875Z,2.60
2018-12-14T10:09:33.002Z,2.60
2018-12-14T10:12:00.258Z,2.60
2018-12-14T10:14:27.425Z,2.70
2018-12-14T10:16:54.600Z,2.70
2018-12-14T10:19:21.750Z,2.70
2018-12-14T10:21:48.986Z,2.60
2018-12-14T10:24:16.227Z,2.60
2018-12-14T10:26:43.484Z,2.70
2018-12-14T10:29:10.628Z,2.70
2018-12-14T10:31:37.778Z,2.80
2018-12-14T10:34:04.975Z,2.80
2018-12-14T10:36:32.121Z,2.80
2018-12-14T10:38:59.254Z,2.70
2018-12-14T10:41:26.440Z,2.70
2018-12-14T10:43:53.580Z,2.70
2018-12-14T10:46:20.738Z,2.70
2018-12-14T10:48:47.909Z,2.70
2018-12-14T10:51:15.219Z,2.70
2018-12-14T10:53:42.359Z,2.80
2018-12-14T10:56:09.583Z,2.70
2018-12-14T10:58:36.835Z,2.70
2018-12-14T11:01:14.272Z,2.80
2018-12-14T11:03:39.023Z,2.80
2018-12-14T11:06:06.154Z,2.80
2018-12-14T11:08:33.296Z,2.70
2018-12-14T11:11:00.433Z,2.60
2018-12-14T11:13:27.719Z,2.70
2018-12-14T11:15:54.877Z,2.70
2018-12-14T11:18:22.004Z,2.70
2018-12-14T11:20:49.132Z,2.80
2018-12-14T11:23:16.259Z,2.80
2018-12-14T11:25:43.416Z,2.80
2018-12-14T11:28:10.546Z,2.80
2018-12-14T11:30:37.682Z,2.80
2018-12-14T11:33:04.924Z,2.70
2018-12-14T11:35:32.066Z,2.80
2018-12-14T11:37:59.302Z,2.80
2018-12-14T11:40:26.456Z,2.80
2018-12-14T11:42:53.566Z,2.80
2018-12-14T11:45:20.815Z,2.90
2018-12-14T11:47:47.966Z,2.70
2018-12-14T11:50:15.117Z,2.70
2018-12-14T11:52:42.262Z,2.80
2018-12-14T11:55:09.992Z,2.80
2018-12-14T11:57:37.248Z,2.90
2018-12-14T12:00:08.435Z,2.80
2018-12-14T12:02:35.682Z,2.70
2018-12-14T12:05:03.232Z,2.70
2018-12-14T12:07:30.408Z,2.60
2018-12-14T12:09:57.596Z,2.60
2018-12-14T12:12:24.846Z,2.60
2018-12-14T12:14:52.001Z,2.70
2018-12-14T12:17:19.142Z,2.70
2018-12-14T12:19:46.353Z,2.70
2018-12-14T12:22:13.695Z,2.60
2018-12-14T12:24:40.814Z,2.60
2018-12-14T12:27:07.955Z,2.70
2018-12-14T12:29:35.850Z,2.70
2018-12-14T12:32:03.334Z,2.80
2018-12-14T12:34:30.562Z,2.70
2018-12-14T12:36:57.782Z,2.70
2018-12-14T12:39:24.910Z,2.70
2018-12-14T12:41:52.154Z,2.70
2018-12-14T12:44:19.311Z,2.80
2018-12-14T12:46:46.467Z,2.80
2018-12-14T12:51:47.827Z,2.80
2018-12-14T12:54:15.074Z,2.80
2018-12-14T12:56:42.522Z,2.70
2018-12-14T12:59:09.650Z,2.70
2018-12-14T13:01:36.808Z,2.70
2018-12-14T13:04:04.054Z,2.60
2018-12-14T13:06:31.203Z,2.60
2018-12-14T13:08:58.392Z,2.60
2018-12-14T13:11:25.535Z,2.60
2018-12-14T13:13:52.728Z,2.60
2018-12-14T13:16:26.677Z,2.70
2018-12-14T13:18:53.823Z,2.70
2018-12-14T13:21:20.954Z,2.70
2018-12-14T13:23:48.086Z,2.80
2018-12-14T13:26:15.342Z,2.80
2018-12-14T13:28:42.527Z,2.70
2018-12-14T13:31:09.784Z,2.70
2018-12-14T13:33:37.034Z,2.70
2018-12-14T13:36:04.159Z,2.80
2018-12-14T13:38:31.413Z,2.70
2018-12-14T13:40:58.741Z,2.60
2018-12-14T13:43:26.267Z,2.50
2018-12-14T13:45:53.614Z,2.50
2018-12-14T13:48:20.936Z,2.50
2018-12-14T13:50:48.278Z,2.50
2018-12-14T13:53:15.410Z,2.50
2018-12-14T13:55:42.654Z,2.50
2018-12-14T13:58:09.812Z,2.50
2018-12-14T14:00:36.958Z,2.50
2018-12-14T14:03:04.097Z,2.50
2018-12-14T14:05:31.218Z,2.50
2018-12-14T14:07:58.362Z,2.50
2018-12-14T14:10:25.480Z,2.50
2018-12-14T14:12:52.644Z,2.60
2018-12-14T14:15:21.027Z,2.50
2018-12-14T14:17:48.458Z,2.50
2018-12-14T14:20:15.670Z,2.50
2018-12-14T14:22:43.019Z,2.50
2018-12-14T14:25:10.490Z,2.50
2018-12-14T14:27:37.950Z,2.60
2018-12-14T14:30:05.658Z,2.50
2018-12-14T14:32:32.824Z,2.60
2018-12-14T14:34:59.996Z,2.50
2018-12-14T14:37:27.126Z,2.40
2018-12-14T14:39:54.262Z,2.50
2018-12-14T14:42:21.431Z,2.50
2018-12-14T14:44:48.574Z,2.60
2018-12-14T14:47:15.740Z,2.60
2018-12-14T14:49:42.883Z,2.60
2018-12-14T14:52:10.029Z,2.50
2018-12-14T14:54:39.976Z,2.50
2018-12-14T14:57:06.637Z,2.40
2018-12-14T14:59:33.855Z,2.50
2018-12-14T15:02:00.981Z,2.40
2018-12-14T15:04:28.230Z,2.40
2018-12-14T15:06:55.346Z,2.40
2018-12-14T15:09:22.498Z,2.50
2018-12-14T15:11:49.950Z,2.50
2018-12-14T15:14:17.172Z,2.50
2018-12-14T15:16:44.390Z,2.60
2018-12-14T15:19:11.795Z,2.60
2018-12-14T15:21:38.958Z,2.60
2018-12-14T15:24:06.354Z,2.50
2018-12-14T15:26:33.458Z,2.40
2018-12-14T15:29:00.584Z,2.40
2018-12-14T15:31:27.919Z,2.30
2018-12-14T15:33:55.103Z,2.40
2018-12-14T15:36:22.251Z,2.30
2018-12-14T15:38:49.478Z,2.30
2018-12-14T15:41:16.616Z,2.30
2018-12-14T15:43:44.058Z,2.20
2018-12-14T15:46:11.311Z,2.20
2018-12-14T15:48:38.598Z,2.30
2018-12-14T15:51:05.878Z,2.40
2018-12-14T15:53:33.209Z,2.50
2018-12-14T15:56:00.461Z,2.60
2018-12-14T15:58:27.793Z,2.50
2018-12-14T16:00:55.196Z,2.40
2018-12-14T16:06:21.007Z,2.40
2018-12-14T16:08:48.126Z,2.40
2018-12-14T16:11:15.547Z,2.50
2018-12-14T16:13:42.829Z,2.50
2018-12-14T16:16:10.059Z,2.40
2018-12-14T16:18:37.508Z,2.40
2018-12-14T16:21:04.776Z,2.30
2018-12-14T16:23:32.015Z,2.30
2018-12-14T16:25:59.376Z,2.30
2018-12-14T16:28:26.507Z,2.30
2018-12-14T16:30:53.762Z,2.30
2018-12-14T16:33:20.937Z,2.40
2018-12-14T16:35:48.143Z,2.40
2018-12-14T16:38:15.388Z,2.30
2018-12-14T16:40:42.511Z,2.30
2018-12-14T16:43:09.694Z,2.30
2018-12-14T16:45:37.203Z,2.30
2018-12-14T16:48:04.407Z,2.30
2018-12-14T16:50:31.815Z,2.30
2018-12-14T16:52:59.087Z,2.40
2018-12-14T16:55:26.277Z,2.40
2018-12-14T16:57:53.411Z,2.30
2018-12-14T17:00:20.715Z,2.40
2018-12-14T17:02:47.985Z,2.40
2018-12-14T17:05:15.115Z,2.40
2018-12-14T17:07:42.244Z,2.40
2018-12-14T17:10:09.412Z,2.30
2018-12-14T17:12:36.570Z,2.30
2018-12-14T17:15:04.562Z,2.40
2018-12-14T17:17:31.685Z,2.40
2018-12-14T17:19:58.878Z,2.30
2018-12-14T17:22:26.012Z,2.20
2018-12-14T17:24:53.191Z,2.20
2018-12-14T17:27:20.583Z,2.30
2018-12-14T17:29:47.723Z,2.30
2018-12-14T17:32:15.229Z,2.30
2018-12-14T17:34:42.376Z,2.30
2018-12-14T17:37:10.710Z,2.20
2018-12-14T17:39:37.929Z,2.20
2018-12-14T17:42:05.276Z,2.20
2018-12-14T17:44:32.426Z,2.20
2018-12-14T17:46:59.615Z,2.20
2018-12-14T17:49:26.903Z,2.10
2018-12-14T17:51:54.229Z,2.10
2018-12-14T17:54:21.450Z,2.10
2018-12-14T17:56:48.618Z,2.20
2018-12-14T17:59:15.984Z,2.20
2018-12-14T18:01:43.534Z,2.30
2018-12-14T18:04:10.679Z,2.30
2018-12-14T18:10:09.370Z,2.30
2018-12-14T18:12:36.617Z,2.30
2018-12-14T18:15:04.477Z,2.30
2018-12-14T18:17:31.867Z,2.20
2018-12-14T18:19:59.122Z,2.20
2018-12-14T18:22:26.588Z,2.30
2018-12-14T18:24:54.147Z,2.20
2018-12-14T18:27:21.285Z,2.20
2018-12-14T18:29:48.435Z,2.10
2018-12-14T18:32:15.662Z,2.20
2018-12-14T18:34:42.791Z,2.20
2018-12-14T18:37:09.962Z,2.30
2018-12-14T18:39:38.056Z,2.30
2018-12-14T18:42:05.304Z,2.30
2018-12-14T18:44:32.541Z,2.20
2018-12-14T18:46:59.774Z,2.20
2018-12-14T18:49:27.026Z,2.20
2018-12-14T18:52:58.043Z,2.20
2018-12-14T18:55:25.317Z,2.30
2018-12-14T18:57:52.551Z,2.20
2018-12-14T19:00:19.887Z,2.20
2018-12-14T19:02:47.442Z,2.10
2018-12-14T19:05:14.704Z,2.20
2018-12-14T19:07:42.089Z,2.20
2018-12-14T19:10:09.462Z,2.10
2018-12-14T19:12:36.875Z,2.10
2018-12-14T19:15:04.916Z,2.20
2018-12-14T19:17:32.235Z,2.30
2018-12-14T19:19:59.416Z,2.30
2018-12-14T19:22:26.546Z,2.20
2018-12-14T19:24:53.690Z,2.10
2018-12-14T19:27:21.010Z,2.10
2018-12-14T19:29:48.127Z,2.10
2018-12-14T19:32:15.288Z,2.00
2018-12-14T19:34:42.421Z,2.00
2018-12-14T19:37:09.605Z,2.00
2018-12-14T19:39:36.725Z,2.00
2018-12-14T19:42:03.871Z,2.00
2018-12-14T19:44:31.150Z,2.00
2018-12-14T19:46:58.417Z,2.10
2018-12-14T19:49:25.548Z,2.10
2018-12-14T19:51:52.926Z,2.20
2018-12-14T19:54:20.375Z,2.20
2018-12-14T19:56:47.624Z,2.20
2018-12-14T19:59:14.742Z,2.20
2018-12-14T20:01:41.871Z,2.20
2018-12-14T20:04:09.114Z,2.20
2018-12-14T20:06:36.258Z,2.20
2018-12-14T20:09:05.463Z,2.20
2018-12-14T20:11:32.663Z,2.10
2018-12-14T20:13:59.787Z,2.10
2018-12-14T20:16:26.924Z,2.10
2018-12-14T20:18:54.112Z,2.10
2018-12-14T20:21:21.288Z,2.10
2018-12-14T20:23:48.422Z,2.10
2018-12-14T20:26:15.538Z,2.10
2018-12-14T20:28:42.864Z,2.10
2018-12-14T20:31:10.062Z,2.00
2018-12-14T20:33:37.197Z,2.10
2018-12-14T20:36:04.333Z,2.10
2018-12-14T20:38:31.523Z,2.00
2018-12-14T20:40:58.642Z,2.00
2018-12-14T20:43:25.770Z,1.90
2018-12-14T20:45:52.991Z,1.90
2018-12-14T20:48:20.128Z,1.90
2018-12-14T20:50:47.273Z,2.00
2018-12-14T20:53:14.424Z,1.90
2018-12-14T20:55:41.698Z,1.90
2018-12-14T20:58:08.847Z,1.90
2018-12-14T21:00:35.965Z,1.90
2018-12-14T21:03:03.130Z,1.90
2018-12-14T21:05:30.250Z,1.80
2018-12-14T21:07:57.391Z,1.80
2018-12-14T21:10:24.520Z,1.80
2018-12-14T21:12:51.950Z,1.80
2018-12-14T21:15:19.215Z,1.90
2018-12-14T21:17:46.377Z,1.80
2018-12-14T21:20:13.502Z,1.80
2018-12-14T21:22:40.662Z,1.90
2018-12-14T21:25:07.919Z,2.00
2018-12-14T21:27:35.160Z,2.00
2018-12-14T21:30:02.560Z,1.90
2018-12-14T21:32:29.966Z,2.00
2018-12-14T21:34:57.107Z,1.80
2018-12-14T21:37:24.338Z,1.80
2018-12-14T21:39:51.582Z,1.80
2018-12-14T21:42:18.826Z,1.80
2018-12-14T21:44:45.967Z,1.80
2018-12-14T21:47:13.261Z,1.70
2018-12-14T21:49:40.500Z,1.80
2018-12-14T21:52:07.735Z,1.90
2018-12-14T21:54:34.864Z,1.90
2018-12-14T21:57:01.998Z,2.00
2018-12-14T21:59:29.218Z,1.90
2018-12-14T22:01:56.412Z,1.80
2018-12-14T22:04:23.567Z,1.80
2018-12-14T22:06:50.702Z,1.80
2018-12-14T22:09:17.827Z,1.80
2018-12-14T22:11:44.964Z,1.80
2018-12-14T22:14:12.185Z,1.80
2018-12-14T22:16:39.593Z,1.80
2018-12-14T22:19:06.855Z,1.80
2018-12-14T22:21:34.008Z,1.70
2018-12-14T22:24:02.306Z,1.70
2018-12-14T22:26:29.518Z,1.70
2018-12-14T22:28:56.638Z,1.70
2018-12-14T22:31:23.766Z,1.70
2018-12-14T22:33:50.949Z,1.70
2018-12-14T22:36:18.094Z,1.70
2018-12-14T22:38:45.400Z,1.70
2018-12-14T22:41:12.631Z,1.80
2018-12-14T22:43:39.890Z,1.80
2018-12-14T22:46:07.142Z,1.80
2018-12-14T22:48:34.274Z,1.80
2018-12-14T22:51:01.442Z,1.70
2018-12-14T22:53:28.687Z,1.70
2018-12-14T22:55:55.838Z,1.70
2018-12-14T22:58:22.982Z,1.80
2018-12-14T23:00:53.594Z,1.80
2018-12-14T23:03:20.987Z,1.80
2018-12-14T23:05:48.767Z,1.90
2018-12-14T23:08:15.910Z,1.90
2018-12-14T23:10:43.035Z,1.80
2018-12-14T23:13:10.305Z,1.80
2018-12-14T23:15:37.575Z,1.80
2018-12-14T23:18:04.782Z,1.90
2018-12-14T23:20:32.010Z,1.90
2018-12-14T23:22:59.246Z,1.90
2018-12-14T23:25:26.379Z,2.00
2018-12-14T23:27:53.542Z,2.00
2018-12-14T23:30:20.674Z,2.10
2018-12-14T23:32:52.206Z,2.10
2018-12-14T23:35:19.994Z,2.10
2018-12-14T23:37:47.178Z,2.00
2018-12-14T23:40:14.312Z,2.10
2018-12-14T23:42:41.442Z,2.00
2018-12-14T23:45:08.834Z,2.00
2018-12-14T23:47:35.971Z,2.00
2018-12-14T23:50:03.819Z,2.10
2018-12-14T23:52:30.977Z,2.10
2018-12-14T23:54:58.237Z,2.20
2018-12-14T23:57:25.371Z,2.20
2018-12-14T23:59:52.535Z,2.20
